Time;durP1;ratioP1;P1;durP2;ratioP2;P2;SDS_P1;SDS_P2;PMS_P1;PMS_P2;Temp;Humidity;BMP_temperature;BMP_pressure;BME280_temperature;BME280_humidity;BME280_pressure;Samples;Min_cycle;Max_cycle;Signal;HPM_P1;HPM_P2
2023/05/23 00:00:35;;;;;;;;;28.67;26.33;;;;;14.63;81.72;101819.16;5029813;28;45450;-64
2023/05/23 00:03:01;;;;;;;;;36.33;29.67;;;;;14.65;81.72;101826.22;5014582;28;45312;-63
2023/05/23 00:05:28;;;;;;;;;39.00;31.00;;;;;14.68;81.93;101834.09;5015176;27;45494;-64
2023/05/23 00:07:53;;;;;;;;;32.67;28.33;;;;;14.61;82.30;101826.28;5014235;28;45697;-64
2023/05/23 00:10:18;;;;;;;;;37.33;30.33;;;;;14.57;83.04;101819.28;5014686;27;45482;-64
2023/05/23 00:12:46;;;;;;;;;37.00;30.33;;;;;14.66;82.84;101836.78;5014455;28;45241;-64
2023/05/23 00:15:13;;;;;;;;;34.67;30.33;;;;;14.63;82.26;101832.41;5014443;28;45429;-63
2023/05/23 00:17:38;;;;;;;;;40.33;32.67;;;;;14.60;82.89;101834.25;5014562;27;45470;-63
2023/05/23 00:20:08;;;;;;;;;32.33;29.67;;;;;14.57;81.74;101832.53;5014336;27;45335;-63
2023/05/23 00:22:35;;;;;;;;;34.00;31.33;;;;;14.50;82.91;101827.41;5014137;28;45477;-63
2023/05/23 00:25:00;;;;;;;;;43.67;31.00;;;;;14.45;82.61;101823.06;5014549;27;45683;-63
2023/05/23 00:27:26;;;;;;;;;38.67;29.33;;;;;14.57;83.09;101847.56;5013973;27;45271;-63
2023/05/23 00:29:51;;;;;;;;;32.67;30.00;;;;;14.51;82.38;101832.66;5014452;28;45403;-64
2023/05/23 00:32:17;;;;;;;;;37.33;31.00;;;;;14.56;82.77;101833.41;5014557;28;45295;-63
2023/05/23 00:34:43;;;;;;;;;36.67;30.67;;;;;14.53;82.45;101829.97;5017429;27;45465;-64
2023/05/23 00:37:08;;;;;;;;;33.67;29.33;;;;;14.58;82.76;101841.34;5017221;27;46949;-63
2023/05/23 00:39:33;;;;;;;;;41.33;32.67;;;;;14.47;82.23;101830.13;5016889;28;45439;-64
2023/05/23 00:42:04;;;;;;;;;34.67;29.00;;;;;14.53;82.97;101846.75;5017051;28;45382;-64
2023/05/23 00:44:29;;;;;;;;;35.00;30.67;;;;;14.52;82.84;101852.97;5017093;28;45266;-64
2023/05/23 00:46:56;;;;;;;;;34.00;30.00;;;;;14.49;83.37;101853.00;5016684;27;45354;-64
2023/05/23 00:49:22;;;;;;;;;35.50;29.50;;;;;14.45;82.98;101848.69;5017142;28;45444;-63
2023/05/23 00:51:48;;;;;;;;;38.33;31.33;;;;;14.40;83.06;101840.81;5016976;27;45519;-63
2023/05/23 00:54:17;;;;;;;;;41.00;32.33;;;;;14.45;83.15;101846.91;5017288;27;45320;-64
2023/05/23 00:56:42;;;;;;;;;33.67;29.67;;;;;14.50;83.51;101868.00;5016497;28;46296;-64
2023/05/23 00:59:08;;;;;;;;;41.33;32.67;;;;;14.49;83.54;101865.41;5016704;28;45410;-64
2023/05/23 01:01:35;;;;;;;;;30.33;30.00;;;;;14.47;83.75;101860.13;5016888;28;45401;-64
2023/05/23 01:04:03;;;;;;;;;42.00;35.33;;;;;14.49;83.83;101863.59;5017135;28;45581;-63
2023/05/23 01:06:29;;;;;;;;;43.00;33.00;;;;;14.48;82.98;101859.22;5016566;27;46989;-64
2023/05/23 01:08:55;;;;;;;;;45.67;35.33;;;;;14.52;82.91;101867.97;5016771;27;45325;-64
2023/05/23 01:11:32;;;;;;;;;44.67;35.00;;;;;14.45;83.59;101856.66;5016837;27;45402;-64
2023/05/23 01:14:11;;;;;;;;;43.67;35.00;;;;;14.53;83.42;101870.59;5016879;27;45411;-64
2023/05/23 01:17:02;;;;;;;;;32.67;29.67;;;;;14.48;83.67;101869.84;5016668;27;46611;-64
2023/05/23 01:19:28;;;;;;;;;45.67;35.33;;;;;14.52;84.41;101879.47;5016459;28;45263;-64
2023/05/23 01:21:54;;;;;;;;;40.00;34.00;;;;;14.26;84.30;101835.84;5016603;28;45220;-63
2023/05/23 01:24:42;;;;;;;;;45.67;34.00;;;;;14.47;84.57;101873.38;5016815;28;45185;-64
2023/05/23 01:28:03;;;;;;;;;44.00;33.00;;;;;14.54;83.20;101888.25;5016028;28;47595;-64
2023/05/23 01:30:32;;;;;;;;;37.33;32.67;;;;;14.52;85.49;101878.56;5057703;28;45329;-64
2023/05/23 01:32:59;;;;;;;;;36.67;33.00;;;;;14.53;85.74;101881.19;5057593;28;45456;-64
2023/05/23 01:35:26;;;;;;;;;39.33;33.67;;;;;14.49;86.07;101879.50;5057577;28;45393;-64
2023/05/23 01:37:55;;;;;;;;;35.67;31.00;;;;;14.43;86.22;101872.56;5057401;28;46019;-64
2023/05/23 01:40:22;;;;;;;;;48.33;36.67;;;;;14.50;86.39;101880.41;5057322;28;45313;-64
2023/05/23 01:42:48;;;;;;;;;46.00;33.33;;;;;14.49;87.10;101881.28;5057162;28;45491;-64
2023/05/23 01:45:15;;;;;;;;;40.67;30.67;;;;;14.47;87.62;101881.31;5057614;28;45426;-64
2023/05/23 01:47:41;;;;;;;;;45.00;33.00;;;;;14.45;87.79;101880.50;5057143;28;46674;-63
2023/05/23 01:50:09;;;;;;;;;39.67;31.67;;;;;14.47;85.47;101889.28;5057106;28;45479;-64
2023/05/23 01:52:34;;;;;;;;;39.67;32.67;;;;;14.47;86.71;101902.53;5057340;28;45428;-64
2023/05/23 01:55:01;;;;;;;;;44.33;32.67;;;;;14.43;87.46;101898.19;5057514;28;45439;-64
2023/05/23 01:57:29;;;;;;;;;36.67;31.33;;;;;14.27;88.87;101873.78;5057052;28;46249;-64
2023/05/23 01:59:58;;;;;;;;;38.67;32.00;;;;;14.43;88.97;101899.06;5057034;28;45487;-64
2023/05/23 02:02:23;;;;;;;;;39.33;32.67;;;;;14.44;88.44;101892.00;5057053;28;45373;-64
2023/05/23 02:04:48;;;;;;;;;36.00;33.00;;;;;14.45;88.38;101885.81;5017838;28;45289;-64
2023/05/23 02:07:14;;;;;;;;;40.33;29.67;;;;;14.41;88.86;101887.63;4996085;28;46459;-64
2023/05/23 02:09:39;;;;;;;;;36.00;30.00;;;;;14.43;89.22;101890.25;4996308;28;45239;-64
2023/05/23 02:12:05;;;;;;;;;39.00;33.00;;;;;14.45;89.39;101885.81;4996202;28;45272;-64
2023/05/23 02:14:30;;;;;;;;;36.00;30.33;;;;;14.47;89.06;101883.97;4996295;28;45456;-63
2023/05/23 02:16:56;;;;;;;;;33.00;29.67;;;;;14.47;88.10;101877.81;4995995;28;47540;-64
2023/05/23 02:19:21;;;;;;;;;33.67;26.67;;;;;14.54;89.27;101888.25;4996065;28;45210;-64
2023/05/23 02:21:46;;;;;;;;;37.33;30.33;;;;;14.54;89.08;101888.25;4996303;28;45383;-64
2023/05/23 02:24:12;;;;;;;;;37.33;30.00;;;;;14.57;88.26;101887.31;4996372;28;45367;-64
2023/05/23 02:26:37;;;;;;;;;36.00;29.67;;;;;14.58;88.50;101887.28;4996079;28;46655;-64
2023/05/23 02:29:02;;;;;;;;;39.67;30.67;;;;;14.42;88.23;101865.53;4995829;28;45624;-64
2023/05/23 02:31:28;;;;;;;;;30.00;25.67;;;;;14.60;88.52;101895.19;4996069;28;45722;-64
2023/05/23 02:33:53;;;;;;;;;36.00;29.67;;;;;14.61;87.69;101889.91;4996279;28;45338;-64
2023/05/23 02:36:19;;;;;;;;;36.67;30.00;;;;;14.63;88.18;101888.06;4995752;28;45588;-64
2023/05/23 02:38:45;;;;;;;;;37.00;30.33;;;;;14.51;88.36;101874.19;4995813;27;45343;-64
2023/05/23 02:41:10;;;;;;;;;39.33;27.33;;;;;14.27;87.72;101828.75;4995976;28;45312;-64
2023/05/23 02:43:35;;;;;;;;;37.33;29.67;;;;;14.65;88.31;101892.47;4995785;28;45443;-64
2023/05/23 02:46:01;;;;;;;;;38.00;27.67;;;;;14.63;88.11;101890.72;4999664;27;46573;-64
2023/05/23 02:48:26;;;;;;;;;38.00;30.33;;;;;14.57;87.73;101882.03;5015560;28;45262;-64
2023/05/23 02:50:51;;;;;;;;;40.00;34.33;;;;;14.66;87.77;101892.44;5015650;28;45316;-64
2023/05/23 02:53:17;;;;;;;;;40.67;32.33;;;;;14.66;87.70;101891.59;5015697;28;45259;-63
2023/05/23 02:55:42;;;;;;;;;42.67;33.33;;;;;14.68;87.95;101892.41;5014426;28;46593;-63
2023/05/23 02:58:07;;;;;;;;;45.33;35.33;;;;;14.62;87.89;101889.00;5015575;27;45428;-64
2023/05/23 03:00:33;;;;;;;;;35.00;30.67;;;;;14.67;86.79;101903.91;5015611;27;45311;-64
2023/05/23 03:02:59;;;;;;;;;50.33;35.33;;;;;14.65;87.57;101896.00;5015526;27;45574;-64
2023/05/23 03:05:24;;;;;;;;;42.00;34.00;;;;;14.62;88.01;101894.31;5015202;28;46313;-64
2023/05/23 03:07:51;;;;;;;;;41.33;31.67;;;;;14.65;86.94;101889.84;5015286;28;45232;-64
2023/05/23 03:10:16;;;;;;;;;35.00;31.33;;;;;14.66;86.64;101889.78;5015350;28;45262;-64
2023/05/23 03:12:42;;;;;;;;;38.67;30.33;;;;;14.69;87.68;101889.72;5015408;28;45474;-63
2023/05/23 03:15:08;;;;;;;;;37.67;31.00;;;;;14.58;87.02;101876.69;5015022;28;47227;-64
2023/05/23 03:17:34;;;;;;;;;31.33;25.33;;;;;14.63;87.09;101893.38;5015174;27;45289;-64
2023/05/23 03:19:59;;;;;;;;;38.33;29.67;;;;;14.68;87.34;101887.09;5015195;28;45412;-64
2023/05/23 03:22:24;;;;;;;;;39.67;31.00;;;;;14.60;87.00;101880.16;5015552;27;45474;-64
2023/05/23 03:24:50;;;;;;;;;29.33;26.67;;;;;14.73;87.31;101895.84;5014940;27;46343;-63
2023/05/23 03:27:15;;;;;;;;;34.67;30.00;;;;;14.64;87.16;101888.97;5015232;27;45368;-64
2023/05/23 03:29:40;;;;;;;;;41.00;31.67;;;;;14.73;86.31;101896.72;5015076;28;45243;-64
2023/05/23 03:32:06;;;;;;;;;36.00;25.33;;;;;14.60;86.48;101864.25;5015360;27;45376;-63
2023/05/23 03:34:32;;;;;;;;;28.33;23.00;;;;;14.72;85.74;101889.66;5015081;28;45245;-64
2023/05/23 03:36:58;;;;;;;;;30.00;26.67;;;;;14.66;86.25;101884.50;5014829;28;45298;-64
2023/05/23 03:39:24;;;;;;;;;32.67;26.33;;;;;14.56;85.93;101880.25;5014965;27;45479;-64
2023/05/23 03:41:49;;;;;;;;;31.00;27.00;;;;;14.48;86.47;101868.94;5015370;27;45357;-64
2023/05/23 03:44:14;;;;;;;;;25.33;24.00;;;;;14.69;85.83;101902.13;5014651;27;46654;-64
2023/05/23 03:46:40;;;;;;;;;27.00;23.67;;;;;14.68;86.28;101910.97;5014659;28;45169;-63
2023/05/23 03:49:05;;;;;;;;;34.33;24.67;;;;;14.63;85.77;101901.34;5014978;27;45334;-64
2023/05/23 03:51:30;;;;;;;;;23.33;21.00;;;;;14.62;85.31;101911.97;5015319;28;45328;-64
2023/05/23 03:53:56;;;;;;;;;22.33;21.00;;;;;14.63;85.89;101908.41;5014719;27;45209;-64
2023/05/23 03:56:21;;;;;;;;;21.67;18.67;;;;;14.57;85.54;101896.13;5014940;27;45265;-64
2023/05/23 03:58:47;;;;;;;;;23.00;17.33;;;;;14.66;85.45;101905.69;5014812;27;45389;-64
2023/05/23 04:01:13;;;;;;;;;22.33;21.00;;;;;14.67;85.42;101911.88;5015301;27;45278;-64
2023/05/23 04:03:38;;;;;;;;;23.00;20.33;;;;;14.63;84.69;101906.63;5034393;28;46281;-64
2023/05/23 04:06:03;;;;;;;;;23.00;19.67;;;;;14.45;85.53;101876.06;5034385;28;45311;-64
2023/05/23 04:08:32;;;;;;;;;25.33;22.67;;;;;14.43;84.95;101877.84;5032934;28;45426;-64
2023/05/23 04:10:58;;;;;;;;;23.67;22.33;;;;;14.64;84.68;101915.47;5034717;28;45227;-64
2023/05/23 04:13:25;;;;;;;;;25.67;22.33;;;;;14.66;84.84;101911.00;5034015;28;45242;-64
2023/05/23 04:15:51;;;;;;;;;26.33;22.33;;;;;14.45;85.08;101880.50;5034344;28;45292;-64
2023/05/23 04:18:16;;;;;;;;;22.67;18.00;;;;;14.70;85.03;101925.94;5034307;28;45291;-64
2023/05/23 04:20:42;;;;;;;;;25.67;22.00;;;;;14.69;83.96;101918.03;5034518;28;45450;-64
2023/05/23 04:23:07;;;;;;;;;23.00;21.67;;;;;14.66;84.18;101929.56;5034201;28;45322;-64
2023/05/23 04:25:33;;;;;;;;;26.33;21.67;;;;;14.61;84.26;101929.66;5034290;27;45466;-64
2023/05/23 04:27:59;;;;;;;;;29.00;22.00;;;;;14.63;84.52;101927.84;5034424;28;45308;-63
2023/05/23 04:30:25;;;;;;;;;26.33;21.67;;;;;14.71;83.73;101940.97;5034143;28;45379;-64
2023/05/23 04:32:51;;;;;;;;;24.67;22.67;;;;;14.65;83.72;101934.91;5033452;28;46128;-64
2023/05/23 04:35:16;;;;;;;;;27.33;24.33;;;;;14.46;83.57;101900.78;5033838;28;45312;-64
2023/05/23 04:37:41;;;;;;;;;26.33;22.67;;;;;14.70;83.91;101947.16;5034104;28;45555;-64
2023/05/23 04:40:07;;;;;;;;;27.00;23.33;;;;;14.71;83.41;101948.00;5034242;28;45308;-64
2023/05/23 04:42:33;;;;;;;;;28.33;22.33;;;;;14.66;82.89;101948.13;5033246;28;45451;-64
2023/05/23 04:45:00;;;;;;;;;27.33;18.67;;;;;14.70;83.22;101948.94;5033667;28;45217;-63
2023/05/23 04:47:27;;;;;;;;;25.00;22.00;;;;;14.67;82.44;101944.56;5033663;27;45297;-63
2023/05/23 04:49:56;;;;;;;;;25.33;22.00;;;;;14.60;83.42;101930.53;5033811;28;45453;-64
2023/05/23 04:52:21;;;;;;;;;23.67;18.67;;;;;14.67;81.33;101936.63;5033638;28;46185;-63
2023/05/23 04:54:47;;;;;;;;;23.67;19.00;;;;;14.69;81.45;101952.50;5033834;28;45445;-64
2023/05/23 04:57:13;;;;;;;;;21.00;16.33;;;;;14.61;81.38;101942.91;5033712;28;45345;-64
2023/05/23 04:59:38;;;;;;;;;24.00;20.00;;;;;14.62;81.54;101942.03;5033959;28;45190;-64
2023/05/23 05:02:05;;;;;;;;;18.33;16.67;;;;;14.65;81.49;101948.16;5033428;28;46262;-63
2023/05/23 05:04:30;;;;;;;;;23.00;19.67;;;;;14.68;81.57;101953.38;5000454;28;45335;-64
2023/05/23 05:06:56;;;;;;;;;20.00;18.00;;;;;14.68;81.39;101961.34;5002445;28;45504;-64
2023/05/23 05:09:21;;;;;;;;;20.67;20.00;;;;;14.69;80.97;101955.13;4994035;28;45510;-64
2023/05/23 05:11:47;;;;;;;;;22.33;17.33;;;;;14.70;80.86;101954.25;4993675;28;46036;-64
2023/05/23 05:14:12;;;;;;;;;23.33;21.00;;;;;14.72;81.70;101963.03;4993268;28;45339;-64
2023/05/23 05:16:38;;;;;;;;;27.00;18.67;;;;;14.71;81.47;101954.22;4993892;28;45603;-64
2023/05/23 05:19:03;;;;;;;;;17.33;17.00;;;;;14.78;80.89;101970.84;4995439;28;45382;-64
2023/05/23 05:21:30;;;;;;;;;24.00;17.67;;;;;14.81;80.64;101970.78;4996399;28;45399;-63
2023/05/23 05:23:56;;;;;;;;;23.00;18.33;;;;;14.81;81.06;101970.78;4996499;28;45351;-63
2023/05/23 05:26:22;;;;;;;;;23.00;19.67;;;;;14.75;81.16;101969.13;4996300;28;45566;-63
2023/05/23 05:28:47;;;;;;;;;20.00;16.00;;;;;14.85;80.39;101976.91;4996407;28;45252;-63
2023/05/23 05:31:14;;;;;;;;;24.67;19.67;;;;;14.85;80.49;101982.22;4996539;28;46481;-63
2023/05/23 05:33:40;;;;;;;;;18.00;14.67;;;;;14.85;80.00;101980.44;4996459;28;45217;-63
2023/05/23 05:36:06;;;;;;;;;24.00;20.33;;;;;14.89;79.79;101989.19;4996635;28;45341;-63
2023/05/23 05:38:32;;;;;;;;;25.67;17.33;;;;;14.90;80.01;101983.88;4996537;28;45239;-63
2023/05/23 05:40:58;;;;;;;;;25.00;19.67;;;;;14.89;79.64;101994.50;4996488;28;46273;-63
2023/05/23 05:43:25;;;;;;;;;17.67;13.33;;;;;14.91;79.25;101998.84;4996339;28;45410;-63
2023/05/23 05:45:50;;;;;;;;;20.33;19.67;;;;;14.89;78.63;101997.16;4998603;27;45263;-63
2023/05/23 05:48:16;;;;;;;;;21.67;18.67;;;;;14.88;79.29;101992.75;5016583;28;45341;-64
2023/05/23 05:50:44;;;;;;;;;19.33;18.00;;;;;14.85;78.77;101990.16;5016961;28;46450;-63
2023/05/23 05:53:12;;;;;;;;;19.33;17.67;;;;;14.89;78.83;101998.03;5016349;27;45223;-63
2023/05/23 05:55:37;;;;;;;;;22.67;18.00;;;;;14.79;78.60;101980.56;5016373;27;45362;-63
2023/05/23 05:58:03;;;;;;;;;20.67;16.67;;;;;14.94;78.25;102009.41;5016280;28;45326;-63
2023/05/23 06:00:29;;;;;;;;;25.33;20.67;;;;;14.76;78.18;101977.97;5015550;28;46554;-63
2023/05/23 06:02:56;;;;;;;;;18.33;16.33;;;;;14.97;77.88;102012.00;5016034;27;45312;-63
2023/05/23 06:05:22;;;;;;;;;23.67;19.33;;;;;15.02;77.70;102019.88;5016359;27;45339;-63
2023/05/23 06:07:48;;;;;;;;;17.67;15.33;;;;;15.02;77.75;102019.00;5016537;27;45470;-63
2023/05/23 06:10:14;;;;;;;;;21.67;18.67;;;;;14.88;77.30;102001.56;5015872;28;46846;-63
2023/05/23 06:12:39;;;;;;;;;25.33;19.00;;;;;14.95;77.21;102019.09;5015988;27;45370;-63
2023/05/23 06:15:06;;;;;;;;;17.67;15.00;;;;;14.99;76.81;102022.59;5015795;28;45285;-63
2023/05/23 06:17:31;;;;;;;;;19.00;17.67;;;;;14.60;76.91;101972.94;5016116;28;45360;-63
2023/05/23 06:19:57;;;;;;;;;21.33;16.33;;;;;14.95;76.32;102024.41;5015839;27;45643;-63
2023/05/23 06:22:22;;;;;;;;;18.67;17.67;;;;;14.87;75.97;102021.06;5015811;28;45285;-63
2023/05/23 06:24:47;;;;;;;;;17.33;16.00;;;;;14.92;74.88;102029.78;5016175;28;45411;-63
2023/05/23 06:27:13;;;;;;;;;18.67;16.00;;;;;14.72;74.93;101987.75;5015958;27;45462;-63
2023/05/23 06:29:38;;;;;;;;;27.00;20.33;;;;;14.94;75.15;102030.63;5015025;28;46233;-63
2023/05/23 06:32:04;;;;;;;;;17.67;14.33;;;;;15.04;73.59;102033.09;5014591;28;45399;-63
2023/05/23 06:34:30;;;;;;;;;17.00;13.67;;;;;15.19;73.32;102029.22;5015489;28;45394;-63
2023/05/23 06:36:55;;;;;;;;;17.00;14.33;;;;;15.26;71.67;102025.53;5014172;28;45431;-63
2023/05/23 06:39:20;;;;;;;;;23.33;18.00;;;;;15.43;71.32;102033.13;5015480;28;46050;-63
2023/05/23 06:41:46;;;;;;;;;18.67;18.00;;;;;15.41;69.76;102024.31;5015180;28;45667;-63
2023/05/23 06:44:12;;;;;;;;;19.33;18.00;;;;;15.51;69.21;102028.53;5015841;28;45509;-63
2023/05/23 06:46:37;;;;;;;;;19.00;14.33;;;;;15.54;68.47;102033.78;5015474;27;45423;-63
2023/05/23 06:49:02;;;;;;;;;20.00;15.33;;;;;15.53;67.83;102026.72;5015206;27;46603;-63
2023/05/23 06:51:28;;;;;;;;;18.00;14.33;;;;;15.68;67.90;102036.09;5015606;28;45487;-63
2023/05/23 06:53:55;;;;;;;;;15.33;13.67;;;;;15.71;66.89;102036.03;5015426;28;45285;-63
2023/05/23 06:56:21;;;;;;;;;16.67;15.33;;;;;15.77;67.89;102033.25;5015828;27;45330;-63
2023/05/23 06:58:46;;;;;;;;;13.00;11.33;;;;;15.74;66.89;102040.38;5015232;28;47452;-63
2023/05/23 07:01:12;;;;;;;;;16.67;15.00;;;;;15.76;67.58;102047.41;5015053;28;45501;-64
2023/05/23 07:03:40;;;;;;;;;17.00;15.33;;;;;15.74;66.49;102043.94;5015311;28;45225;-63
2023/05/23 07:06:06;;;;;;;;;21.00;13.33;;;;;15.80;66.75;102045.59;5015494;28;45312;-64
2023/05/23 07:08:31;;;;;;;;;16.33;11.67;;;;;15.86;65.86;102047.22;5015143;28;46284;-63
2023/05/23 07:10:56;;;;;;;;;19.67;13.00;;;;;15.89;66.14;102055.13;5015152;28;45293;-63
2023/05/23 07:13:21;;;;;;;;;20.33;13.00;;;;;15.66;65.43;102024.66;5015018;28;45404;-63
2023/05/23 07:15:47;;;;;;;;;20.00;14.67;;;;;15.80;64.58;102056.22;5015450;28;45414;-63
2023/05/23 07:18:12;;;;;;;;;17.33;16.33;;;;;15.81;64.92;102065.94;5015070;28;45460;-63
2023/05/23 07:20:37;;;;;;;;;15.33;14.67;;;;;15.76;65.25;102055.38;5015299;28;45333;-63
2023/05/23 07:23:03;;;;;;;;;18.00;14.33;;;;;15.72;64.74;102056.38;5014927;28;45242;-64
2023/05/23 07:25:28;;;;;;;;;18.33;12.00;;;;;15.72;63.92;102059.03;5015090;28;45804;-63
2023/05/23 07:27:53;;;;;;;;;22.00;13.67;;;;;15.76;64.33;102084.59;5014887;28;45681;-63
2023/05/23 07:30:21;;;;;;;;;16.67;15.33;;;;;15.69;63.75;102075.03;5014873;27;45671;-63
2023/05/23 07:32:47;;;;;;;;;14.67;11.67;;;;;15.64;64.52;102079.56;5015250;28;45293;-63
2023/05/23 07:35:13;;;;;;;;;17.67;14.67;;;;;15.62;64.90;102081.38;5015286;28;45166;-63
2023/05/23 07:37:39;;;;;;;;;17.33;14.67;;;;;15.62;65.11;102079.59;5014441;28;45404;-63
2023/05/23 07:40:05;;;;;;;;;17.33;13.00;;;;;15.59;64.99;102071.69;5016037;27;45413;-63
2023/05/23 07:42:30;;;;;;;;;13.67;13.00;;;;;15.70;64.86;102089.16;5014617;28;45327;-63
2023/05/23 07:44:55;;;;;;;;;17.33;14.33;;;;;15.63;65.42;102084.00;5014984;27;45518;-63
2023/05/23 07:47:21;;;;;;;;;21.33;13.67;;;;;15.61;64.23;102090.25;5014571;27;45345;-64
2023/05/23 07:49:46;;;;;;;;;21.33;14.67;;;;;15.66;64.65;102099.00;5014597;28;45316;-64
2023/05/23 07:52:12;;;;;;;;;14.00;12.00;;;;;15.64;64.99;102100.78;5014939;28;45323;-63
2023/05/23 07:54:37;;;;;;;;;14.67;12.33;;;;;15.56;64.10;102090.34;5015048;27;45481;-63
2023/05/23 07:57:03;;;;;;;;;18.00;14.00;;;;;15.46;65.01;102084.38;5014682;28;46593;-63
2023/05/23 07:59:29;;;;;;;;;11.00;11.00;;;;;15.41;64.70;102083.59;5014533;28;45475;-63
2023/05/23 08:01:54;;;;;;;;;11.00;9.67;;;;;15.45;65.70;102098.56;5014180;28;45458;-63
2023/05/23 08:04:20;;;;;;;;;20.33;15.33;;;;;15.38;65.25;102096.06;5014921;28;45214;-63
2023/05/23 08:06:46;;;;;;;;;15.00;11.00;;;;;15.33;65.26;102096.16;5014266;28;46600;-63
2023/05/23 08:09:12;;;;;;;;;14.00;11.67;;;;;15.27;65.72;102096.28;5014493;28;45428;-63
2023/05/23 08:11:37;;;;;;;;;16.67;12.33;;;;;15.26;66.06;102098.09;5014564;28;45319;-63
2023/05/23 08:14:03;;;;;;;;;17.67;14.33;;;;;15.25;66.00;102091.03;5014564;28;45373;-63
2023/05/23 08:16:28;;;;;;;;;15.00;13.67;;;;;15.26;65.90;102099.84;5014201;28;45406;-63
2023/05/23 08:18:53;;;;;;;;;20.67;18.00;;;;;15.27;66.63;102110.41;5014250;28;45362;-63
2023/05/23 08:21:19;;;;;;;;;19.33;14.00;;;;;15.23;66.47;102103.44;5014635;27;45426;-63
2023/05/23 08:23:44;;;;;;;;;16.67;14.33;;;;;15.23;66.34;102106.06;5014403;28;45299;-63
2023/05/23 08:26:09;;;;;;;;;16.67;15.00;;;;;15.15;66.96;102095.63;5013898;28;45679;-63
2023/05/23 08:28:35;;;;;;;;;14.33;12.00;;;;;15.26;66.61;102103.38;5013702;28;45325;-63
2023/05/23 08:31:00;;;;;;;;;15.67;13.67;;;;;15.24;66.46;102099.00;5013977;28;45407;-63
2023/05/23 08:33:25;;;;;;;;;17.33;15.00;;;;;15.25;66.60;102106.94;5014386;27;45461;-63
2023/05/23 08:35:51;;;;;;;;;15.33;13.33;;;;;15.24;66.98;102109.63;5013945;28;45717;-63
2023/05/23 08:38:17;;;;;;;;;15.67;15.00;;;;;15.22;66.72;102106.09;5014139;28;45396;-63
2023/05/23 08:40:48;;;;;;;;;15.00;13.00;;;;;15.19;67.17;102109.72;5014102;27;45261;-63
2023/05/23 08:43:14;;;;;;;;;18.67;15.33;;;;;15.25;67.58;102117.56;5014399;27;45314;-63
2023/05/23 08:45:40;;;;;;;;;19.33;16.00;;;;;15.19;67.58;102116.78;5013651;27;46288;-64
2023/05/23 08:48:08;;;;;;;;;25.00;15.33;;;;;15.19;67.37;102128.31;5014032;28;45347;-63
2023/05/23 08:50:38;;;;;;;;;12.67;10.33;;;;;15.26;68.26;102135.22;5014151;28;45554;-63
2023/05/23 08:53:07;;;;;;;;;10.33;9.67;;;;;15.27;67.84;102125.47;5014184;28;45400;-63
2023/05/23 08:55:33;;;;;;;;;10.33;8.67;;;;;15.31;68.07;102130.69;5016756;28;47540;-63
2023/05/23 08:57:59;;;;;;;;;13.00;11.67;;;;;15.30;67.90;102142.19;5016749;28;45391;-63
2023/05/23 09:00:26;;;;;;;;;10.67;9.00;;;;;15.29;66.88;102143.13;5016861;28;45460;-63
2023/05/23 09:02:53;;;;;;;;;9.33;9.33;;;;;15.22;67.09;102135.28;5017042;28;45399;-63
2023/05/23 09:05:19;;;;;;;;;11.00;9.67;;;;;15.20;67.43;102137.97;5016863;28;45717;-63
2023/05/23 09:07:48;;;;;;;;;11.00;7.67;;;;;15.19;67.13;102127.41;5016905;27;45339;-63
2023/05/23 09:10:16;;;;;;;;;9.50;6.50;;;;;15.24;66.20;102139.69;5016803;28;45406;-63
2023/05/23 09:12:42;;;;;;;;;8.00;7.75;;;;;15.30;66.60;102139.53;5017093;28;45302;-63
2023/05/23 09:15:08;;;;;;;;;9.00;6.75;;;;;15.32;65.96;102126.25;5016446;28;46621;-63
2023/05/23 09:17:35;;;;;;;;;7.00;6.00;;;;;15.29;65.71;102119.25;5016374;28;45363;-63
2023/05/23 09:20:01;;;;;;;;;7.00;6.50;;;;;15.43;66.00;102142.81;5016896;28;45392;-63
2023/05/23 09:22:27;;;;;;;;;5.00;4.75;;;;;15.45;65.70;102122.47;5016516;28;45419;-63
2023/05/23 09:24:54;;;;;;;;;5.50;4.50;;;;;15.63;65.10;102134.44;5016651;28;46414;-63
2023/05/23 09:27:20;;;;;;;;;4.25;4.00;;;;;15.71;64.46;102136.94;5016600;28;45180;-63
2023/05/23 09:29:46;;;;;;;;;4.25;4.00;;;;;15.81;64.37;102133.22;5016529;28;45376;-63
2023/05/23 09:32:19;;;;;;;;;5.33;5.33;;;;;15.93;63.86;102126.75;5016815;28;45402;-63
2023/05/23 09:34:58;;;;;;;;;8.50;6.75;;;;;16.07;63.09;102122.91;5016305;28;46570;-63
2023/05/23 09:37:32;;;;;;;;;8.75;4.50;;;;;16.17;62.30;102117.31;5016288;28;45414;-63
2023/05/23 09:39:59;;;;;;;;;6.25;6.25;;;;;16.32;61.04;102131.13;5016760;28;45462;-63
2023/05/23 09:42:30;;;;;;;;;5.50;3.75;;;;;16.39;61.28;102132.72;5016724;28;45370;-63
2023/05/23 09:44:55;;;;;;;;;7.67;6.00;;;;;16.41;60.22;102119.41;5016160;28;46767;-63
2023/05/23 09:47:20;;;;;;;;;6.50;5.00;;;;;16.48;60.70;102129.88;5016345;28;45452;-63
2023/05/23 09:49:46;;;;;;;;;4.00;4.00;;;;;16.56;59.90;102134.13;5016355;28;45362;-63
2023/05/23 09:52:12;;;;;;;;;4.25;4.00;;;;;16.58;61.83;102143.78;5016508;28;45359;-63
2023/05/23 09:54:38;;;;;;;;;8.75;6.00;;;;;16.61;60.21;102141.03;5016233;28;45179;-63
2023/05/23 09:57:09;;;;;;;;;7.00;5.00;;;;;16.58;60.17;102129.63;5016120;28;45443;-63
2023/05/23 09:59:39;;;;;;;;;8.67;7.67;;;;;16.69;59.52;102141.72;5016304;27;45353;-63
2023/05/23 10:02:07;;;;;;;;;8.00;6.00;;;;;16.76;59.58;102145.09;5016170;28;45325;-63
2023/05/23 10:04:33;;;;;;;;;7.00;7.00;;;;;16.77;59.45;102125.53;5016028;28;45345;-63
2023/05/23 10:07:17;;;;;;;;;8.67;5.00;;;;;16.86;59.01;102125.31;5016017;28;45304;-63
2023/05/23 10:10:05;;;;;;;;;6.50;5.00;;;;;17.00;59.11;102137.41;5016086;28;45337;-63
2023/05/23 10:12:31;;;;;;;;;8.50;4.00;;;;;17.00;58.55;102140.94;5016414;28;45395;-63
2023/05/23 10:15:00;;;;;;;;;7.75;5.75;;;;;16.78;58.05;102115.81;5015813;28;46188;-63
2023/05/23 10:17:36;;;;;;;;;8.00;6.00;;;;;17.01;59.03;102144.47;5015884;27;45296;-63
2023/05/23 10:20:09;;;;;;;;;7.00;5.33;;;;;17.21;58.74;102151.91;5016254;28;45486;-63
2023/05/23 10:22:37;;;;;;;;;5.50;5.50;;;;;17.42;57.53;102150.41;5016033;28;45446;-63
2023/05/23 10:25:04;;;;;;;;;8.67;6.67;;;;;17.51;57.56;102130.63;5015797;28;45477;-63
2023/05/23 10:27:30;;;;;;;;;5.00;4.33;;;;;17.67;56.13;102144.38;5015936;28;45634;-63
2023/05/23 10:29:57;;;;;;;;;4.00;4.00;;;;;17.62;55.59;102146.31;5015962;28;45419;-63
2023/05/23 10:32:24;;;;;;;;;7.25;4.00;;;;;17.52;56.40;102148.38;5016000;27;45500;-63
2023/05/23 10:35:02;;;;;;;;;7.00;5.67;;;;;17.48;56.33;102146.72;5015535;28;46176;-63
2023/05/23 10:37:49;;;;;;;;;8.25;5.25;;;;;17.45;56.72;102145.00;5015608;28;45475;-63
2023/05/23 10:40:24;;;;;;;;;5.75;5.75;;;;;17.46;55.30;102156.53;5015881;28;45331;-63
2023/05/23 10:43:05;;;;;;;;;9.00;4.33;;;;;17.43;55.91;102149.50;5015781;28;45422;-63
2023/05/23 10:45:41;;;;;;;;;10.00;5.50;;;;;17.49;55.97;102153.78;5015423;27;45494;-63
2023/05/23 10:48:19;;;;;;;;;8.50;6.50;;;;;17.60;56.11;102154.34;5015579;28;45493;-63
2023/05/23 10:50:45;;;;;;;;;8.33;8.33;;;;;17.73;55.35;102149.50;5015185;28;45346;-63
2023/05/23 10:53:15;;;;;;;;;5.00;4.00;;;;;17.85;55.93;102145.63;5015772;28;45356;-63
2023/05/23 10:55:40;;;;;;;;;10.33;5.33;;;;;17.91;53.82;102132.13;5015389;28;46304;-63
2023/05/23 10:58:20;;;;;;;;;7.25;4.50;;;;;18.11;54.76;102144.81;5015377;28;45250;-63
2023/05/23 11:00:52;;;;;;;;;7.00;5.50;;;;;18.26;53.20;102154.13;5015578;28;45344;-63
2023/05/23 11:03:18;;;;;;;;;14.00;13.33;;;;;18.45;51.68;102139.22;5015518;28;45379;-63
2023/05/23 11:05:51;;;;;;;;;5.75;4.25;;;;;18.62;50.69;102151.16;5015482;28;46432;-64
2023/05/23 11:08:19;;;;;;;;;9.33;5.67;;;;;18.74;49.94;102152.53;5015277;27;45289;-63
2023/05/23 11:10:55;;;;;;;;;5.00;5.00;;;;;18.78;50.28;102146.16;5015310;28;45234;-63